createdAt,value
2023-04-18T06:58:54.804Z,8.20
2023-04-18T07:01:31.216Z,8.30
2023-04-18T07:17:58.854Z,8.50
2023-04-18T07:20:34.555Z,8.60
2023-04-18T07:23:09.979Z,8.60
2023-04-18T07:25:44.266Z,8.70
2023-04-18T07:28:18.863Z,8.80
2023-04-18T07:31:08.247Z,8.90
2023-04-18T07:33:47.946Z,8.90
2023-04-18T07:36:27.357Z,8.90
2023-04-18T07:39:04.182Z,8.90
2023-04-18T07:41:42.267Z,8.90
2023-04-18T07:44:19.028Z,8.90
2023-04-18T07:46:52.973Z,9.00
2023-04-18T07:49:30.040Z,9.00
2023-04-18T07:52:04.619Z,9.00
2023-04-18T07:54:42.421Z,9.10
2023-04-18T07:57:15.825Z,9.10
2023-04-18T07:59:55.284Z,8.90
2023-04-18T08:02:36.418Z,8.90
2023-04-18T08:05:15.518Z,8.80
2023-04-18T08:07:57.840Z,8.90
2023-04-18T08:10:41.825Z,9.00
2023-04-18T08:13:17.905Z,9.10
2023-04-18T08:15:55.494Z,9.20
2023-04-18T08:18:30.781Z,9.20
2023-04-18T08:21:09.565Z,9.10
2023-04-18T08:23:50.983Z,9.20
2023-04-18T08:26:38.963Z,9.30
2023-04-18T08:29:13.413Z,9.30
2023-04-18T08:32:08.085Z,9.20
2023-04-18T08:34:54.127Z,9.30
2023-04-18T08:37:38.762Z,9.20
2023-04-18T08:40:15.148Z,9.30
2023-04-18T08:42:52.825Z,9.30
2023-04-18T08:45:38.582Z,9.40
2023-04-18T08:48:19.444Z,9.30
2023-04-18T08:50:54.743Z,9.30
2023-04-18T08:53:34.022Z,9.30
2023-04-18T08:56:07.337Z,9.40
2023-04-18T08:58:41.419Z,9.50
2023-04-18T09:01:16.031Z,9.50
2023-04-18T09:04:00.621Z,9.60
2023-04-18T09:06:36.680Z,9.60
2023-04-18T09:09:15.896Z,9.70
2023-04-18T09:11:50.916Z,9.70
2023-04-18T09:14:35.621Z,9.90
2023-04-18T09:17:11.560Z,9.80
2023-04-18T09:19:52.716Z,9.90
2023-04-18T09:22:31.737Z,10.00
2023-04-18T09:25:16.943Z,10.10
2023-04-18T09:28:04.560Z,10.10
2023-04-18T09:30:42.629Z,10.30
2023-04-18T09:33:17.323Z,10.50
2023-04-18T09:35:50.940Z,10.70
2023-04-18T09:38:45.633Z,11.00
2023-04-18T09:41:32.039Z,10.90
2023-04-18T09:44:19.214Z,11.10
2023-04-18T09:47:00.645Z,11.00
2023-04-18T09:49:34.147Z,11.10
2023-04-18T09:52:11.862Z,11.20
2023-04-18T09:54:57.156Z,11.20
2023-04-18T09:57:36.363Z,11.30
2023-04-18T10:00:18.901Z,11.30
2023-04-18T10:03:01.724Z,11.40
2023-04-18T10:05:41.973Z,11.40
2023-04-18T10:08:30.559Z,11.40
2023-04-18T10:11:11.781Z,11.40
2023-04-18T10:13:52.342Z,11.40
2023-04-18T10:16:43.764Z,11.40
2023-04-18T10:19:33.548Z,11.50
2023-04-18T10:22:09.667Z,11.70
2023-04-18T10:25:01.579Z,11.70
2023-04-18T10:28:03.803Z,11.70
2023-04-18T10:31:11.615Z,11.60
2023-04-18T10:34:03.133Z,11.60
2023-04-18T10:36:39.384Z,11.40
2023-04-18T10:39:27.701Z,11.50
2023-04-18T10:42:01.418Z,11.50
2023-04-18T10:44:35.019Z,11.50
2023-04-18T10:47:30.244Z,11.60
2023-04-18T10:50:07.129Z,11.70
2023-04-18T10:52:45.340Z,12.00
2023-04-18T10:55:26.503Z,11.90
2023-04-18T10:58:05.589Z,11.90
2023-04-18T11:00:45.826Z,12.10
2023-04-18T11:03:23.788Z,12.10
2023-04-18T11:06:11.763Z,12.10
2023-04-18T11:08:51.182Z,12.10
2023-04-18T11:11:28.106Z,12.10
2023-04-18T11:14:05.062Z,12.00
2023-04-18T11:16:40.103Z,12.10
2023-04-18T11:19:28.781Z,12.30
2023-04-18T11:22:05.644Z,12.40
2023-04-18T11:24:41.924Z,12.70
2023-04-18T11:27:27.005Z,13.60
2023-04-18T11:30:05.805Z,13.70
2023-04-18T11:32:41.383Z,14.10
2023-04-18T11:35:22.648Z,14.50
2023-04-18T11:38:00.683Z,14.80
2023-04-18T11:41:01.163Z,15.00
2023-04-18T11:43:38.680Z,15.00
2023-04-18T11:46:14.545Z,15.20
2023-04-18T11:48:52.484Z,15.40
2023-04-18T11:51:48.831Z,15.20
2023-04-18T11:54:40.616Z,15.60
2023-04-18T11:57:30.034Z,15.70
2023-04-18T12:00:08.865Z,15.40
2023-04-18T12:02:54.792Z,15.40
2023-04-18T12:05:34.711Z,14.90
2023-04-18T12:08:19.576Z,14.50
2023-04-18T12:10:57.903Z,14.30
2023-04-18T12:13:45.546Z,14.20
2023-04-18T12:16:20.950Z,14.20
2023-04-18T12:19:03.702Z,14.20
2023-04-18T12:21:39.003Z,14.30
2023-04-18T12:24:28.303Z,14.20
2023-04-18T12:27:03.737Z,14.30
2023-04-18T12:29:39.184Z,14.20
2023-04-18T12:32:12.475Z,14.30
2023-04-18T12:34:55.078Z,14.40
2023-04-18T12:37:40.047Z,14.20
2023-04-18T12:40:18.858Z,14.20
2023-04-18T12:43:03.544Z,14.10
2023-04-18T12:45:40.239Z,14.00
2023-04-18T12:48:13.422Z,14.00
2023-04-18T12:50:51.216Z,13.90
2023-04-18T12:53:30.701Z,13.90
2023-04-18T12:56:11.880Z,14.00
2023-04-18T12:58:50.496Z,14.10
2023-04-18T13:01:25.567Z,14.00
2023-04-18T13:04:13.036Z,14.10
2023-04-18T13:06:54.861Z,14.00
2023-04-18T13:09:32.996Z,13.90
2023-04-18T13:12:16.260Z,13.90
2023-04-18T13:14:54.499Z,13.70
2023-04-18T13:17:32.649Z,13.70
2023-04-18T13:20:08.680Z,13.70
2023-04-18T13:22:42.908Z,13.70
2023-04-18T13:25:20.808Z,13.70
2023-04-18T13:28:04.269Z,13.70
2023-04-18T13:30:42.124Z,13.80
2023-04-18T13:33:17.508Z,13.70
2023-04-18T13:35:51.914Z,13.70
2023-04-18T13:38:25.658Z,14.00
2023-04-18T13:41:11.308Z,14.10
2023-04-18T13:43:51.865Z,14.10
2023-04-18T13:46:32.336Z,14.20
2023-04-18T13:49:06.441Z,14.20
2023-04-18T13:51:39.279Z,14.50
2023-04-18T13:54:18.421Z,14.70
2023-04-18T13:56:52.037Z,14.80
2023-04-18T13:59:28.139Z,14.60
2023-04-18T14:02:04.932Z,14.60
2023-04-18T14:04:48.739Z,14.60
2023-04-18T14:07:23.161Z,14.70
2023-04-18T14:09:59.002Z,14.90
2023-04-18T14:12:38.765Z,15.10
2023-04-18T14:15:18.440Z,15.30
2023-04-18T14:17:53.797Z,15.50
2023-04-18T14:20:36.461Z,15.50
2023-04-18T14:23:11.940Z,15.60
2023-04-18T14:25:46.317Z,15.60
2023-04-18T14:28:23.302Z,15.40
2023-04-18T14:31:04.221Z,15.30
2023-04-18T14:33:38.682Z,15.30
2023-04-18T14:36:13.825Z,15.20
2023-04-18T14:38:57.971Z,15.20
2023-04-18T14:41:49.147Z,15.10
2023-04-18T14:44:26.368Z,15.10
2023-04-18T14:47:08.252Z,15.10
2023-04-18T14:49:45.939Z,14.90
2023-04-18T14:52:19.495Z,14.80
2023-04-18T14:54:52.974Z,14.60
2023-04-18T14:57:26.275Z,14.60
2023-04-18T15:00:00.261Z,14.60
2023-04-18T15:02:41.403Z,14.60
2023-04-18T15:05:17.037Z,14.70
2023-04-18T15:07:50.018Z,14.70
2023-04-18T15:10:24.985Z,14.70
2023-04-18T15:12:59.059Z,14.80
2023-04-18T15:15:40.773Z,14.80
2023-04-18T15:18:18.223Z,15.00
2023-04-18T15:20:52.843Z,15.20
2023-04-18T15:23:28.241Z,15.30
2023-04-18T15:26:04.402Z,15.30
2023-04-18T15:28:38.801Z,15.20
2023-04-18T15:31:24.258Z,15.20
2023-04-18T15:34:00.176Z,15.10
2023-04-18T15:36:33.843Z,15.10
2023-04-18T15:39:10.646Z,15.00
2023-04-18T15:41:46.344Z,15.00
2023-04-18T15:44:28.108Z,15.00
2023-04-18T15:47:04.042Z,15.00
2023-04-18T15:49:41.064Z,15.00
2023-04-18T15:52:16.803Z,15.00
2023-04-18T15:54:52.051Z,15.00
2023-04-18T15:57:28.360Z,14.90
2023-04-18T16:00:03.666Z,14.90
2023-04-18T16:02:38.665Z,14.90
2023-04-18T16:05:16.159Z,14.80
2023-04-18T16:07:50.277Z,14.80
2023-04-18T16:10:30.476Z,14.70
2023-04-18T16:13:04.776Z,14.70
2023-04-18T16:15:46.450Z,14.70
2023-04-18T16:18:19.687Z,14.80
2023-04-18T16:21:02.336Z,14.70
2023-04-18T16:23:39.293Z,14.70
2023-04-18T16:26:12.098Z,14.70
2023-04-18T16:28:45.095Z,14.60
2023-04-18T16:31:22.070Z,14.60
2023-04-18T16:33:55.443Z,14.70
2023-04-18T16:36:30.948Z,14.80
2023-04-18T16:39:06.122Z,14.80
2023-04-18T16:41:40.938Z,15.00
2023-04-18T16:44:16.906Z,14.90
2023-04-18T16:46:52.499Z,14.90
2023-04-18T16:49:27.507Z,14.80
2023-04-18T16:52:09.341Z,14.90
2023-04-18T16:54:44.003Z,14.80
2023-04-18T16:57:17.426Z,14.70
2023-04-18T16:59:55.121Z,14.60
2023-04-18T17:02:49.132Z,14.50
2023-04-18T17:05:29.774Z,14.30
2023-04-18T17:08:05.264Z,14.20
2023-04-18T17:10:44.520Z,14.10
2023-04-18T17:13:18.847Z,14.10
2023-04-18T17:15:55.375Z,14.00
2023-04-18T17:18:30.663Z,13.90
2023-04-18T17:21:04.885Z,13.90
2023-04-18T17:23:45.242Z,13.80
2023-04-18T17:26:18.823Z,13.80
2023-04-18T17:28:53.340Z,13.90
2023-04-18T17:31:27.213Z,13.80
2023-04-18T17:34:01.221Z,13.80
2023-04-18T17:36:34.963Z,13.80
2023-04-18T17:39:11.453Z,13.80
2023-04-18T17:41:45.359Z,13.70
2023-04-18T17:44:18.418Z,13.60
2023-04-18T17:47:03.454Z,13.60
2023-04-18T17:49:37.303Z,13.70
2023-04-18T17:52:10.836Z,13.60
2023-04-18T17:54:46.782Z,13.50
2023-04-18T17:57:22.620Z,13.40
2023-04-18T17:59:56.634Z,13.40
2023-04-18T18:02:29.649Z,13.30
2023-04-18T18:05:04.558Z,13.40
2023-04-18T18:07:38.784Z,13.40
2023-04-18T18:10:15.628Z,13.40
2023-04-18T18:12:49.768Z,13.30
2023-04-18T18:15:23.459Z,13.30
2023-04-18T18:17:56.808Z,13.20
2023-04-18T18:20:30.607Z,13.20
2023-04-18T18:23:03.638Z,13.20
2023-04-18T18:25:40.780Z,13.20
2023-04-18T18:28:15.944Z,13.20
2023-04-18T18:30:55.915Z,13.00
2023-04-18T18:33:29.757Z,12.90
2023-04-18T18:36:08.519Z,12.90
2023-04-18T18:38:43.494Z,12.90
2023-04-18T18:41:18.282Z,12.80
2023-04-18T18:43:52.618Z,12.60
2023-04-18T18:46:31.001Z,12.50
2023-04-18T18:49:05.181Z,12.50
2023-04-18T18:51:38.423Z,12.50
2023-04-18T18:54:11.136Z,12.60
2023-04-18T18:56:48.457Z,12.60
2023-04-18T18:59:26.380Z,12.60
2023-04-18T19:01:59.481Z,12.60
2023-04-18T19:04:32.558Z,12.60
2023-04-18T19:07:07.380Z,12.60
2023-04-18T19:09:40.498Z,12.50
2023-04-18T19:12:18.420Z,12.50
2023-04-18T19:14:57.281Z,12.40
2023-04-18T19:17:38.070Z,12.40
2023-04-18T19:20:11.967Z,12.40
2023-04-18T19:22:48.117Z,12.40
2023-04-18T19:25:47.262Z,12.50
2023-04-18T19:28:25.502Z,12.50
2023-04-18T19:30:58.606Z,12.50
2023-04-18T19:33:32.139Z,12.50
2023-04-18T19:36:05.461Z,12.40
2023-04-18T19:38:39.511Z,12.40
2023-04-18T19:41:13.958Z,12.40
2023-04-18T19:43:50.222Z,12.30
2023-04-18T19:46:26.510Z,12.30
2023-04-18T19:48:59.446Z,12.30
2023-04-18T19:51:41.437Z,12.30
2023-04-18T19:54:15.242Z,12.30
2023-04-18T19:56:50.500Z,12.20
2023-04-18T19:59:34.402Z,12.30
2023-04-18T20:02:11.515Z,12.20
2023-04-18T20:04:45.406Z,12.20
2023-04-18T20:07:19.816Z,12.20
2023-04-18T20:09:53.538Z,12.20
2023-04-18T20:12:26.599Z,12.20
2023-04-18T20:15:02.718Z,12.20
2023-04-18T20:17:35.865Z,12.20
2023-04-18T20:20:14.964Z,12.10
2023-04-18T20:22:48.535Z,12.20
2023-04-18T20:25:22.061Z,12.10
2023-04-18T20:27:56.118Z,12.20
2023-04-18T20:30:33.526Z,12.10
2023-04-18T20:33:09.586Z,12.10
2023-04-18T20:35:42.833Z,12.00
2023-04-18T20:38:16.008Z,11.90
2023-04-18T20:40:50.318Z,11.90
2023-04-18T20:43:23.249Z,11.90
2023-04-18T20:46:03.704Z,11.80
2023-04-18T20:48:36.997Z,11.80
2023-04-18T20:51:17.065Z,11.80
2023-04-18T20:53:49.976Z,11.70
2023-04-18T20:56:26.140Z,11.70
2023-04-18T20:59:02.578Z,11.60
2023-04-18T21:01:38.320Z,11.60
2023-04-18T21:04:13.640Z,11.50
2023-04-18T21:06:48.712Z,11.60
2023-04-18T21:09:21.588Z,11.60
2023-04-18T21:11:54.599Z,11.60
2023-04-18T21:14:28.300Z,11.60
2023-04-18T21:17:03.943Z,11.50
2023-04-18T21:19:41.993Z,11.60
2023-04-18T21:22:16.479Z,11.50
2023-04-18T21:24:51.623Z,11.40
2023-04-18T21:27:27.496Z,11.40
2023-04-18T21:30:00.919Z,11.50
2023-04-18T21:32:38.440Z,11.40
2023-04-18T21:35:11.758Z,11.40
2023-04-18T21:37:47.307Z,11.40
2023-04-18T21:40:20.176Z,11.40
2023-04-18T21:42:53.379Z,11.30
2023-04-18T21:45:26.342Z,11.30
2023-04-18T21:48:03.216Z,11.30
2023-04-18T21:50:36.840Z,11.40
2023-04-18T21:53:09.741Z,11.40
2023-04-18T21:55:42.459Z,11.40
2023-04-18T21:58:15.729Z,11.40
2023-04-18T22:00:48.801Z,11.50
2023-04-18T22:03:24.811Z,11.50
2023-04-18T22:05:59.717Z,11.50
2023-04-18T22:08:33.502Z,11.50
2023-04-18T22:11:08.000Z,11.70
2023-04-18T22:13:46.640Z,11.60
2023-04-18T22:16:19.851Z,11.50
2023-04-18T22:19:02.418Z,11.50
2023-04-18T22:21:34.764Z,11.50
2023-04-18T22:24:11.023Z,11.50
2023-04-18T22:26:45.920Z,11.40
2023-04-18T22:29:19.597Z,11.30
2023-04-18T22:31:52.935Z,11.30
2023-04-18T22:34:29.112Z,11.30
2023-04-18T22:37:03.927Z,11.30
2023-04-18T22:39:38.798Z,11.30
2023-04-18T22:42:11.440Z,11.30
2023-04-18T22:44:44.164Z,11.20
2023-04-18T22:47:17.162Z,11.20
2023-04-18T22:49:53.086Z,11.20
2023-04-18T22:52:27.038Z,11.30
2023-04-18T22:55:00.260Z,11.30
2023-04-18T22:57:34.163Z,11.20
2023-04-18T23:00:09.797Z,11.10
2023-04-18T23:02:46.120Z,11.10
2023-04-18T23:05:22.180Z,11.10
2023-04-18T23:07:59.647Z,11.00
